Time;durP1;ratioP1;P1;durP2;ratioP2;P2;SDS_P1;SDS_P2;PMS_P1;PMS_P2;Temp;Humidity;BMP_temperature;BMP_pressure;BME280_temperature;BME280_humidity;BME280_pressure;Samples;Min_cycle;Max_cycle;Signal;HPM_P1;HPM_P2
2023/08/11 00:00:07;;;;;;;7.07;6.18;;;19.80;88.60;;;;;;5102540;28;20443;-78
2023/08/11 00:02:33;;;;;;;7.88;5.50;;;19.80;88.30;;;;;;5119486;28;20026;-78
2023/08/11 00:04:59;;;;;;;9.98;6.15;;;19.60;87.70;;;;;;5137432;28;20028;-78
2023/08/11 00:07:24;;;;;;;9.05;6.10;;;19.60;88.30;;;;;;5137377;28;20032;-78
2023/08/11 00:09:50;;;;;;;7.40;6.07;;;19.50;88.50;;;;;;5119513;28;20020;-78
2023/08/11 00:12:16;;;;;;;8.85;5.88;;;19.50;88.50;;;;;;5119365;28;20079;-78
2023/08/11 00:14:42;;;;;;;7.70;6.43;;;19.50;88.50;;;;;;5119215;28;20046;-78
2023/08/11 00:17:07;;;;;;;7.25;6.25;;;19.50;88.80;;;;;;5119309;28;20020;-78
2023/08/11 00:19:33;;;;;;;7.95;6.60;;;19.50;88.90;;;;;;5102196;28;20038;-79
2023/08/11 00:21:58;;;;;;;10.23;6.88;;;19.50;89.00;;;;;;5137175;28;20027;-78
2023/08/11 00:24:24;;;;;;;8.90;6.45;;;19.50;89.10;;;;;;5119159;28;20028;-78
2023/08/11 00:26:50;;;;;;;8.18;6.13;;;19.40;89.20;;;;;;5136944;28;20053;-78
2023/08/11 00:29:16;;;;;;;11.48;7.43;;;19.40;89.10;;;;;;5119132;28;20027;-78
2023/08/11 00:31:42;;;;;;;8.20;6.35;;;19.40;89.00;;;;;;5136972;28;20087;-78
2023/08/11 00:34:07;;;;;;;9.70;6.47;;;19.30;90.10;;;;;;5118966;28;20043;-78
2023/08/11 00:36:34;;;;;;;10.15;6.32;;;19.30;89.50;;;;;;5118902;28;20056;-78
2023/08/11 00:39:00;;;;;;;8.68;6.43;;;19.40;89.40;;;;;;5136938;28;20020;-78
2023/08/11 00:41:27;;;;;;;8.55;6.05;;;19.30;88.70;;;;;;5136899;28;20031;-78
2023/08/11 00:43:52;;;;;;;8.80;6.75;;;19.30;88.80;;;;;;5118630;28;20039;-78
2023/08/11 00:46:21;;;;;;;8.18;6.80;;;19.30;88.90;;;;;;5118709;28;20024;-78
2023/08/11 00:48:51;;;;;;;10.85;7.03;;;19.30;89.10;;;;;;5136334;28;20043;-78
2023/08/11 00:51:18;;;;;;;8.93;6.80;;;19.30;88.50;;;;;;5118483;28;20011;-78
2023/08/11 00:53:51;;;;;;;9.35;7.30;;;19.30;89.30;;;;;;5101761;28;20386;-78
2023/08/11 00:56:22;;;;;;;5.85;5.20;;;19.20;89.60;;;;;;5118616;28;20028;-78
2023/08/11 00:58:49;;;;;;;5.35;4.28;;;19.10;89.50;;;;;;5136510;28;20008;-78
2023/08/11 01:01:15;;;;;;;5.15;4.30;;;19.00;89.80;;;;;;5118275;28;20028;-78
2023/08/11 01:03:45;;;;;;;6.85;5.32;;;19.10;90.00;;;;;;5135235;28;20406;-78
2023/08/11 01:06:46;;;;;;;6.55;5.72;;;19.10;89.90;;;;;;5136211;28;20394;-78
2023/08/11 01:09:21;;;;;;;7.35;5.90;;;19.10;89.80;;;;;;5118140;28;20014;-78
2023/08/11 01:12:10;;;;;;;7.78;5.53;;;19.10;90.00;;;;;;5118155;28;20031;-78
2023/08/11 01:14:56;;;;;;;7.68;5.15;;;19.00;89.90;;;;;;5136172;28;20079;-78
2023/08/11 01:17:24;;;;;;;9.80;6.00;;;19.00;89.90;;;;;;5136214;28;20073;-78
2023/08/11 01:19:50;;;;;;;8.10;5.85;;;19.00;90.00;;;;;;5136106;28;20035;-78
2023/08/11 01:22:18;;;;;;;7.95;6.65;;;19.00;90.10;;;;;;5136001;28;20031;-78
2023/08/11 01:24:45;;;;;;;8.48;7.00;;;19.00;90.10;;;;;;5135965;28;20072;-78
2023/08/11 01:27:12;;;;;;;10.50;6.95;;;19.10;90.00;;;;;;5101205;28;20032;-78
2023/08/11 01:29:38;;;;;;;7.90;6.88;;;19.10;90.00;;;;;;5101061;28;20031;-78
2023/08/11 01:32:04;;;;;;;10.93;7.20;;;19.20;90.40;;;;;;5135790;28;20127;-78
2023/08/11 01:34:30;;;;;;;8.82;7.22;;;19.10;90.00;;;;;;5135652;28;20024;-77
2023/08/11 01:36:59;;;;;;;8.45;7.10;;;19.10;90.00;;;;;;5100847;28;20028;-78
2023/08/11 01:39:25;;;;;;;10.73;7.43;;;19.00;90.00;;;;;;5135649;28;20024;-78
2023/08/11 01:41:51;;;;;;;9.07;6.88;;;19.10;90.00;;;;;;5135638;28;20375;-78
2023/08/11 01:44:17;;;;;;;9.43;6.45;;;19.10;89.60;;;;;;5135719;28;20039;-78
2023/08/11 01:46:42;;;;;;;8.10;6.72;;;19.00;89.40;;;;;;5100532;28;20023;-78
2023/08/11 01:49:12;;;;;;;11.00;6.90;;;19.00;89.50;;;;;;5100298;28;20375;-78
2023/08/11 01:51:39;;;;;;;9.13;7.18;;;19.00;89.60;;;;;;5117910;28;20037;-78
2023/08/11 01:54:05;;;;;;;9.18;6.70;;;19.00;89.60;;;;;;5135389;28;20043;-78
2023/08/11 01:56:31;;;;;;;9.80;7.32;;;19.00;89.30;;;;;;5100424;28;20035;-78
2023/08/11 01:58:57;;;;;;;10.27;7.40;;;19.00;89.30;;;;;;5117411;28;20027;-78
2023/08/11 02:01:22;;;;;;;10.85;6.80;;;19.00;89.50;;;;;;5117138;28;20062;-78
2023/08/11 02:03:49;;;;;;;10.20;7.05;;;18.90;89.70;;;;;;5117323;28;20050;-78
2023/08/11 02:06:15;;;;;;;8.40;6.60;;;18.90;89.90;;;;;;5135059;28;20036;-78
2023/08/11 02:08:40;;;;;;;9.95;7.68;;;18.80;90.00;;;;;;5135187;28;20024;-78
2023/08/11 02:11:06;;;;;;;9.07;7.63;;;18.90;90.00;;;;;;5116987;28;20028;-78
2023/08/11 02:13:32;;;;;;;11.20;7.78;;;18.90;90.10;;;;;;5117101;28;20024;-78
2023/08/11 02:15:58;;;;;;;8.80;7.03;;;18.80;90.00;;;;;;5099893;28;20049;-78
2023/08/11 02:18:24;;;;;;;10.88;7.75;;;18.80;90.00;;;;;;5116831;28;20048;-78
2023/08/11 02:20:49;;;;;;;10.93;7.65;;;18.80;90.10;;;;;;5099777;28;20124;-78
2023/08/11 02:23:15;;;;;;;10.30;7.03;;;18.80;90.10;;;;;;5116838;28;20028;-78
2023/08/11 02:25:41;;;;;;;9.95;8.02;;;18.80;90.20;;;;;;5116921;28;20038;-78
2023/08/11 02:28:07;;;;;;;11.90;7.97;;;18.80;90.10;;;;;;5134755;28;20023;-78
2023/08/11 02:30:32;;;;;;;10.77;8.15;;;18.80;90.10;;;;;;5099695;28;20024;-78
2023/08/11 02:32:59;;;;;;;11.90;7.82;;;18.80;90.10;;;;;;5099709;28;20032;-78
2023/08/11 02:35:24;;;;;;;11.23;8.00;;;18.80;90.00;;;;;;5099716;28;20028;-78
2023/08/11 02:37:50;;;;;;;10.13;7.97;;;18.80;90.00;;;;;;5134709;28;20023;-78
2023/08/11 02:40:19;;;;;;;13.52;8.80;;;18.70;89.70;;;;;;5116391;28;20034;-78
2023/08/11 02:42:51;;;;;;;11.20;8.43;;;18.70;90.00;;;;;;5100022;28;20110;-78
2023/08/11 02:45:17;;;;;;;20.80;8.18;;;18.60;90.00;;;;;;5134464;28;20102;-78
2023/08/11 02:47:43;;;;;;;9.95;7.72;;;18.60;90.10;;;;;;5098876;28;20044;-78
2023/08/11 02:50:09;;;;;;;10.15;7.78;;;18.60;90.10;;;;;;5116154;28;20039;-78
2023/08/11 02:52:35;;;;;;;10.30;7.60;;;18.50;90.10;;;;;;5134226;28;20040;-78
2023/08/11 02:55:03;;;;;;;9.00;7.70;;;18.50;90.00;;;;;;5134297;28;20019;-78
2023/08/11 02:57:28;;;;;;;11.07;8.10;;;18.40;90.00;;;;;;5116356;28;20046;-78
2023/08/11 02:59:54;;;;;;;10.82;7.88;;;18.40;90.10;;;;;;5134148;28;20020;-78
2023/08/11 03:02:20;;;;;;;11.32;8.90;;;18.50;90.10;;;;;;5134205;28;20035;-78
2023/08/11 03:04:46;;;;;;;10.40;8.00;;;18.40;90.10;;;;;;5116206;28;20023;-78
2023/08/11 03:07:12;;;;;;;11.77;7.75;;;18.50;90.20;;;;;;5133996;28;20038;-78
2023/08/11 03:09:39;;;;;;;12.13;7.95;;;18.40;90.10;;;;;;5116283;28;20048;-78
2023/08/11 03:12:06;;;;;;;11.77;8.65;;;18.30;90.10;;;;;;5116009;28;20031;-78
2023/08/11 03:14:32;;;;;;;10.85;8.73;;;18.30;90.30;;;;;;5115979;28;20043;-78
2023/08/11 03:16:59;;;;;;;13.02;8.93;;;18.30;90.40;;;;;;5099099;28;20028;-78
2023/08/11 03:19:25;;;;;;;10.00;8.07;;;18.30;90.40;;;;;;5134119;28;20081;-78
2023/08/11 03:21:50;;;;;;;12.00;9.07;;;18.30;90.50;;;;;;5099025;28;20027;-78
2023/08/11 03:24:16;;;;;;;10.20;7.88;;;18.20;90.50;;;;;;5099185;28;20034;-78
2023/08/11 03:26:41;;;;;;;10.40;8.23;;;18.20;90.40;;;;;;5135496;28;20024;-78
2023/08/11 03:29:07;;;;;;;11.02;8.02;;;18.20;90.40;;;;;;5120159;28;20066;-78
2023/08/11 03:31:34;;;;;;;10.65;8.27;;;18.20;90.40;;;;;;5120143;28;20038;-78
2023/08/11 03:33:59;;;;;;;13.30;9.23;;;18.20;90.50;;;;;;5120167;28;20062;-78
2023/08/11 03:36:25;;;;;;;11.60;8.77;;;18.20;90.50;;;;;;5103095;28;20036;-78
2023/08/11 03:38:51;;;;;;;12.27;8.95;;;18.20;90.40;;;;;;5120024;28;20032;-78
2023/08/11 03:41:17;;;;;;;13.00;9.02;;;18.20;90.50;;;;;;5103238;28;20028;-77
2023/08/11 03:43:43;;;;;;;12.75;8.70;;;18.20;90.40;;;;;;5137953;28;20046;-78
2023/08/11 03:46:09;;;;;;;12.48;9.60;;;18.20;90.40;;;;;;5137841;28;20027;-78
2023/08/11 03:48:35;;;;;;;10.88;7.80;;;18.10;90.40;;;;;;5119469;28;20051;-79
2023/08/11 03:51:01;;;;;;;12.25;8.23;;;18.10;90.30;;;;;;5137800;28;20028;-78
2023/08/11 03:53:27;;;;;;;10.02;7.55;;;18.10;90.30;;;;;;5119599;28;20028;-78
2023/08/11 03:55:53;;;;;;;11.65;8.60;;;18.10;90.40;;;;;;5137709;28;20095;-78
2023/08/11 03:58:21;;;;;;;13.00;8.30;;;18.10;90.40;;;;;;5119865;28;20043;-78
2023/08/11 04:00:50;;;;;;;11.30;8.63;;;18.10;90.40;;;;;;5137606;28;20016;-78
2023/08/11 04:03:16;;;;;;;11.20;8.70;;;18.00;90.40;;;;;;5119437;28;20032;-78
2023/08/11 04:05:42;;;;;;;11.75;8.63;;;17.90;90.40;;;;;;5137496;28;20091;-78
2023/08/11 04:08:07;;;;;;;11.27;8.65;;;17.90;90.50;;;;;;5119416;28;20032;-78
2023/08/11 04:10:35;;;;;;;11.75;8.05;;;17.90;90.50;;;;;;5119608;28;20024;-78
2023/08/11 04:13:01;;;;;;;11.68;8.50;;;17.90;90.50;;;;;;5137438;28;20020;-78
2023/08/11 04:15:27;;;;;;;9.63;7.75;;;17.90;90.50;;;;;;5137275;28;20111;-78
2023/08/11 04:17:52;;;;;;;10.68;7.28;;;17.90;90.50;;;;;;5119317;28;20026;-78
2023/08/11 04:20:18;;;;;;;10.25;7.80;;;17.90;90.50;;;;;;5137214;28;20023;-78
2023/08/11 04:22:44;;;;;;;11.15;8.60;;;17.90;90.50;;;;;;5119054;28;20023;-78
2023/08/11 04:25:12;;;;;;;10.70;8.13;;;17.90;90.50;;;;;;5137246;28;20027;-78
2023/08/11 04:27:39;;;;;;;11.30;8.23;;;17.90;90.60;;;;;;5137086;28;20027;-78
2023/08/11 04:30:06;;;;;;;11.07;8.48;;;17.90;91.00;;;;;;5137040;28;20035;-78
2023/08/11 04:32:32;;;;;;;12.82;8.65;;;18.00;90.70;;;;;;5119170;28;20079;-78
2023/08/11 04:34:58;;;;;;;13.35;9.15;;;17.90;90.70;;;;;;5085167;28;20027;-78
2023/08/11 04:37:23;;;;;;;17.20;10.13;;;17.90;90.70;;;;;;5118856;28;20035;-78
2023/08/11 04:39:49;;;;;;;11.68;9.23;;;17.90;90.80;;;;;;5136800;28;20034;-78
2023/08/11 04:42:15;;;;;;;12.25;9.60;;;17.90;90.90;;;;;;5136814;28;20483;-78
2023/08/11 04:44:40;;;;;;;11.77;9.27;;;17.80;90.90;;;;;;5136913;28;20072;-78
2023/08/11 04:47:06;;;;;;;12.65;10.30;;;17.80;91.00;;;;;;5118504;28;20032;-78
2023/08/11 04:49:32;;;;;;;15.27;10.48;;;17.90;91.00;;;;;;5118635;28;20052;-78
2023/08/11 04:51:58;;;;;;;15.48;10.60;;;17.90;91.00;;;;;;5118447;28;20095;-78
2023/08/11 04:54:24;;;;;;;14.05;10.82;;;17.90;90.90;;;;;;5118475;28;20016;-78
2023/08/11 04:56:50;;;;;;;12.70;10.25;;;17.90;90.90;;;;;;5118484;28;20038;-78
2023/08/11 04:59:17;;;;;;;12.65;8.98;;;17.90;90.90;;;;;;5101635;28;20095;-79
2023/08/11 05:01:43;;;;;;;13.60;9.85;;;17.90;90.90;;;;;;5101519;28;20261;-78
2023/08/11 05:04:09;;;;;;;15.73;9.68;;;17.90;90.90;;;;;;5101555;28;20061;-78
2023/08/11 05:06:35;;;;;;;11.82;9.32;;;17.80;90.90;;;;;;5136196;28;20034;-78
2023/08/11 05:09:02;;;;;;;13.98;10.95;;;17.80;91.00;;;;;;5136257;28;20020;-78
2023/08/11 05:11:28;;;;;;;15.73;11.00;;;17.80;91.20;;;;;;5118234;28;20027;-78
2023/08/11 05:13:54;;;;;;;15.57;12.05;;;17.80;91.30;;;;;;5118338;28;20118;-77
2023/08/11 05:16:20;;;;;;;18.60;12.18;;;17.80;91.40;;;;;;5117983;28;20112;-78
2023/08/11 05:18:45;;;;;;;18.77;12.23;;;17.80;91.50;;;;;;5118018;28;20024;-78
2023/08/11 05:21:13;;;;;;;15.13;11.80;;;17.80;91.70;;;;;;5118092;28;20039;-78
2023/08/11 05:23:38;;;;;;;17.98;12.82;;;17.80;91.70;;;;;;5135983;28;20019;-78
2023/08/11 05:26:04;;;;;;;19.70;12.93;;;17.80;91.70;;;;;;5135819;28;20079;-78
2023/08/11 05:28:30;;;;;;;18.98;13.80;;;17.90;91.80;;;;;;5117921;28;20109;-77
2023/08/11 05:30:56;;;;;;;18.92;14.75;;;17.90;91.90;;;;;;5135883;28;20058;-77
2023/08/11 05:33:23;;;;;;;18.45;14.38;;;17.90;91.90;;;;;;5117699;28;20011;-77
2023/08/11 05:35:49;;;;;;;20.85;14.75;;;17.90;91.90;;;;;;5135743;28;20016;-78
2023/08/11 05:38:14;;;;;;;20.88;14.32;;;17.90;91.90;;;;;;5135749;28;20031;-78
2023/08/11 05:40:42;;;;;;;21.23;14.75;;;18.00;92.00;;;;;;5135648;28;20036;-78
2023/08/11 05:43:08;;;;;;;20.23;14.30;;;18.00;92.00;;;;;;5100961;28;20513;-78
2023/08/11 05:45:34;;;;;;;19.27;13.57;;;18.00;92.10;;;;;;5135461;28;20024;-77
2023/08/11 05:47:59;;;;;;;20.58;14.40;;;18.00;92.20;;;;;;5117305;28;20027;-77
2023/08/11 05:50:25;;;;;;;17.25;13.65;;;18.00;92.20;;;;;;5134846;28;20051;-78
2023/08/11 05:52:51;;;;;;;17.65;13.32;;;18.00;92.30;;;;;;5100517;28;20043;-77
2023/08/11 05:55:17;;;;;;;18.95;13.45;;;18.00;92.40;;;;;;5117511;28;20031;-77
2023/08/11 05:57:42;;;;;;;18.95;13.38;;;18.10;92.40;;;;;;5117355;28;20024;-77
2023/08/11 06:00:09;;;;;;;16.50;12.77;;;18.10;92.50;;;;;;5135394;28;20474;-77
2023/08/11 06:02:34;;;;;;;19.65;13.02;;;18.20;92.40;;;;;;5117206;28;20061;-77
2023/08/11 06:05:00;;;;;;;20.50;13.88;;;18.20;92.40;;;;;;5135169;28;20091;-77
2023/08/11 06:07:26;;;;;;;19.40;12.90;;;18.30;92.40;;;;;;5100086;28;20036;-77
2023/08/11 06:09:51;;;;;;;18.95;12.70;;;18.30;92.50;;;;;;5117132;28;20031;-77
2023/08/11 06:12:17;;;;;;;18.48;12.93;;;18.30;92.60;;;;;;5116972;28;20040;-77
2023/08/11 06:14:43;;;;;;;18.45;13.10;;;18.40;92.50;;;;;;5100081;28;20024;-77
2023/08/11 06:17:08;;;;;;;19.30;13.13;;;18.40;92.50;;;;;;5099969;28;20039;-77
2023/08/11 06:19:34;;;;;;;17.95;12.65;;;18.40;92.50;;;;;;5134943;28;20042;-77
2023/08/11 06:21:59;;;;;;;21.65;13.43;;;18.50;92.50;;;;;;5116886;28;20034;-77
2023/08/11 06:24:25;;;;;;;19.23;13.45;;;18.50;92.60;;;;;;5134818;28;20028;-77
2023/08/11 06:26:54;;;;;;;19.52;12.77;;;18.50;92.40;;;;;;5099776;28;20032;-77
2023/08/11 06:29:20;;;;;;;19.83;12.88;;;18.60;92.40;;;;;;5117304;28;20030;-77
2023/08/11 06:31:46;;;;;;;20.40;13.38;;;18.60;92.30;;;;;;5116720;28;20032;-77
2023/08/11 06:34:12;;;;;;;18.63;12.75;;;18.70;92.30;;;;;;5134530;28;20024;-77
2023/08/11 06:36:38;;;;;;;19.83;12.80;;;18.70;92.20;;;;;;5134557;28;20065;-77
2023/08/11 06:39:04;;;;;;;19.88;13.80;;;18.80;92.20;;;;;;5134495;28;20032;-77
2023/08/11 06:41:29;;;;;;;18.85;12.70;;;18.80;92.20;;;;;;5134503;28;20035;-77
2023/08/11 06:43:56;;;;;;;20.58;13.15;;;18.90;92.20;;;;;;5134556;28;20038;-77
2023/08/11 06:46:22;;;;;;;21.48;13.60;;;19.00;92.10;;;;;;5134363;28;20034;-77
2023/08/11 06:48:47;;;;;;;20.83;13.40;;;19.00;92.40;;;;;;5116052;28;20071;-77
2023/08/11 06:51:13;;;;;;;21.48;13.85;;;19.10;92.30;;;;;;5134560;28;20030;-77
2023/08/11 06:53:38;;;;;;;19.88;13.93;;;19.10;92.40;;;;;;5099384;28;20038;-77
2023/08/11 06:56:04;;;;;;;21.17;13.15;;;19.20;92.40;;;;;;5099345;28;20024;-77
2023/08/11 06:58:29;;;;;;;21.60;13.88;;;19.30;92.30;;;;;;5134194;28;20059;-77
2023/08/11 07:00:56;;;;;;;19.98;13.13;;;19.30;92.30;;;;;;5115418;28;20062;-78
2023/08/11 07:03:21;;;;;;;19.92;13.48;;;19.40;92.30;;;;;;5134239;28;20028;-78
2023/08/11 07:05:51;;;;;;;21.13;12.85;;;19.40;92.30;;;;;;5116245;28;20022;-77
2023/08/11 07:08:17;;;;;;;18.40;12.30;;;19.50;92.20;;;;;;5116137;28;20015;-77
2023/08/11 07:10:43;;;;;;;16.67;12.02;;;19.60;92.00;;;;;;5134108;28;20020;-77
2023/08/11 07:13:08;;;;;;;19.60;12.68;;;19.60;91.90;;;;;;5116098;28;20039;-77
2023/08/11 07:15:34;;;;;;;25.63;12.80;;;19.70;92.00;;;;;;5099111;28;20027;-77
2023/08/11 07:17:59;;;;;;;18.58;12.45;;;19.80;92.00;;;;;;5134018;28;20023;-77
2023/08/11 07:20:25;;;;;;;18.90;11.73;;;19.90;92.00;;;;;;5116010;28;20038;-78
2023/08/11 07:22:51;;;;;;;17.80;12.38;;;19.90;91.80;;;;;;5116068;28;20115;-77
2023/08/11 07:25:17;;;;;;;18.08;11.43;;;19.90;91.80;;;;;;5098973;28;20024;-77
2023/08/11 07:27:42;;;;;;;18.65;11.32;;;19.90;91.90;;;;;;5133867;28;20457;-78
2023/08/11 07:30:09;;;;;;;16.60;11.73;;;20.00;91.90;;;;;;5116199;28;20051;-77
2023/08/11 07:32:35;;;;;;;18.85;11.70;;;20.10;92.10;;;;;;5133875;28;20015;-77
2023/08/11 07:35:01;;;;;;;16.83;11.95;;;20.10;91.90;;;;;;5099060;28;20032;-77
2023/08/11 07:37:26;;;;;;;18.40;11.63;;;20.20;92.00;;;;;;5116072;28;20036;-77
2023/08/11 07:39:52;;;;;;;17.23;11.07;;;20.30;91.90;;;;;;5115901;28;20091;-77
2023/08/11 07:42:17;;;;;;;16.13;10.88;;;20.40;92.00;;;;;;5098892;28;20027;-77
2023/08/11 07:44:43;;;;;;;18.73;11.13;;;20.40;91.50;;;;;;5115871;28;20035;-77
2023/08/11 07:47:09;;;;;;;16.80;10.73;;;20.50;91.50;;;;;;5115890;28;20036;-77
2023/08/11 07:49:34;;;;;;;16.75;10.43;;;20.50;91.40;;;;;;5133242;28;20075;-77
2023/08/11 07:52:00;;;;;;;14.90;10.20;;;20.60;91.20;;;;;;5098886;28;20048;-77
2023/08/11 07:54:26;;;;;;;17.88;10.32;;;20.70;91.20;;;;;;5115814;28;20031;-77
2023/08/11 07:56:51;;;;;;;16.35;10.00;;;20.80;91.00;;;;;;5133669;28;20052;-77
2023/08/11 07:59:17;;;;;;;15.10;9.75;;;20.80;91.40;;;;;;5115610;28;20053;-77
2023/08/11 08:01:42;;;;;;;16.08;9.52;;;21.00;91.30;;;;;;5133568;28;20056;-77
2023/08/11 08:04:10;;;;;;;14.20;9.07;;;21.10;90.80;;;;;;5133565;28;20080;-77
2023/08/11 08:06:43;;;;;;;13.75;9.10;;;21.20;90.50;;;;;;5115423;28;20028;-77
2023/08/11 08:09:11;;;;;;;14.35;9.63;;;21.30;90.50;;;;;;5115469;28;20012;-77
2023/08/11 08:11:43;;;;;;;16.48;9.48;;;21.40;90.40;;;;;;5133468;28;20031;-77
2023/08/11 08:14:10;;;;;;;14.43;8.40;;;21.40;89.70;;;;;;5137339;28;20027;-77
2023/08/11 08:16:36;;;;;;;14.32;8.85;;;21.50;89.90;;;;;;5137357;28;20111;-78
2023/08/11 08:19:03;;;;;;;12.82;8.23;;;21.60;90.00;;;;;;5137325;28;20020;-78
2023/08/11 08:21:29;;;;;;;12.45;8.32;;;21.70;88.60;;;;;;5085798;28;20019;-77
2023/08/11 08:23:54;;;;;;;14.15;8.10;;;21.80;87.90;;;;;;5119158;28;20024;-77
2023/08/11 08:26:20;;;;;;;11.90;8.15;;;21.80;88.50;;;;;;5102147;28;20035;-78
2023/08/11 08:28:46;;;;;;;11.00;8.25;;;21.90;88.20;;;;;;5119129;28;20459;-78
2023/08/11 08:31:11;;;;;;;12.23;8.07;;;22.00;86.90;;;;;;5119001;28;20047;-77
2023/08/11 08:33:37;;;;;;;11.05;7.30;;;22.10;86.50;;;;;;5118861;28;20035;-77
2023/08/11 08:36:03;;;;;;;13.00;7.43;;;22.10;86.40;;;;;;5136936;28;20019;-78
2023/08/11 08:38:28;;;;;;;11.93;7.18;;;22.20;86.30;;;;;;5101945;28;20509;-78
2023/08/11 08:40:54;;;;;;;12.05;7.25;;;22.30;85.20;;;;;;5136854;28;20062;-77
2023/08/11 08:43:21;;;;;;;14.95;7.32;;;22.40;86.00;;;;;;5118948;28;20103;-78
2023/08/11 08:45:49;;;;;;;10.50;7.10;;;22.50;85.10;;;;;;5118616;28;20038;-77
2023/08/11 08:48:58;;;;;;;12.13;7.32;;;22.70;85.20;;;;;;5136687;28;20028;-77
2023/08/11 08:51:24;;;;;;;10.65;7.10;;;22.80;83.60;;;;;;5125321;28;20047;-77
2023/08/11 08:53:50;;;;;;;12.07;6.65;;;22.90;83.30;;;;;;5118623;28;20045;-77
2023/08/11 08:56:16;;;;;;;10.88;6.75;;;23.00;82.30;;;;;;5118642;28;20043;-77
2023/08/11 08:58:43;;;;;;;10.02;6.70;;;23.10;82.10;;;;;;5136471;28;20110;-77
2023/08/11 09:01:10;;;;;;;11.10;6.63;;;23.10;82.90;;;;;;5136461;28;20027;-77
2023/08/11 09:03:37;;;;;;;10.68;6.45;;;23.20;81.00;;;;;;5101650;28;20024;-78
2023/08/11 09:06:05;;;;;;;9.98;7.07;;;23.20;81.50;;;;;;5118313;28;20032;-78
2023/08/11 09:08:38;;;;;;;9.95;6.75;;;23.30;80.90;;;;;;5118251;28;20019;-77
2023/08/11 09:11:04;;;;;;;9.88;7.13;;;23.40;80.10;;;;;;5136323;28;20020;-77
2023/08/11 09:13:31;;;;;;;12.20;6.78;;;23.40;80.50;;;;;;5136223;28;20039;-77
2023/08/11 09:15:57;;;;;;;11.48;6.45;;;23.40;80.40;;;;;;5118314;28;20087;-77
2023/08/11 09:18:23;;;;;;;10.68;6.15;;;23.50;80.10;;;;;;5136237;28;20030;-77
2023/08/11 09:20:49;;;;;;;9.45;6.03;;;23.60;81.30;;;;;;5117990;28;20043;-77
2023/08/11 09:23:18;;;;;;;10.10;6.43;;;23.70;80.80;;;;;;5117850;28;20043;-77
2023/08/11 09:25:45;;;;;;;9.27;5.82;;;23.80;80.50;;;;;;5117504;28;20030;-77
2023/08/11 09:28:11;;;;;;;7.70;5.78;;;23.90;80.70;;;;;;5118099;28;20035;-78
2023/08/11 09:30:37;;;;;;;8.00;4.88;;;24.00;80.30;;;;;;5117758;28;20024;-77
2023/08/11 09:33:03;;;;;;;9.38;5.78;;;24.20;79.40;;;;;;5118045;28;20028;-77
2023/08/11 09:35:29;;;;;;;10.57;5.45;;;24.20;78.80;;;;;;5135727;28;20103;-77
2023/08/11 09:37:56;;;;;;;8.13;5.15;;;24.30;77.60;;;;;;5135737;28;20024;-77
2023/08/11 09:40:22;;;;;;;10.30;5.40;;;24.30;77.30;;;;;;5117617;28;20382;-77
2023/08/11 09:42:48;;;;;;;7.30;4.57;;;24.40;77.30;;;;;;5117592;28;20024;-77
2023/08/11 09:45:14;;;;;;;8.35;4.22;;;24.40;76.80;;;;;;5135571;28;20028;-77
2023/08/11 09:47:40;;;;;;;9.65;5.03;;;24.40;76.00;;;;;;5117486;28;20031;-78
2023/08/11 09:50:07;;;;;;;6.80;4.47;;;24.50;76.80;;;;;;5100464;28;20143;-78
2023/08/11 09:52:35;;;;;;;10.30;5.45;;;24.60;76.20;;;;;;5100903;28;20417;-80
2023/08/11 09:55:06;;;;;;;6.45;4.35;;;24.70;76.90;;;;;;5100430;28;20030;-80
2023/08/11 09:57:34;;;;;;;7.60;4.70;;;24.80;77.50;;;;;;5101079;28;20063;-78
2023/08/11 10:00:01;;;;;;;6.50;4.50;;;24.90;77.20;;;;;;5117197;28;20023;-78
2023/08/11 10:02:30;;;;;;;5.30;3.50;;;25.00;74.80;;;;;;5135248;28;20023;-80
2023/08/11 10:04:58;;;;;;;6.20;4.00;;;25.00;74.80;;;;;;5135232;28;20023;-78
2023/08/11 10:07:39;;;;;;;6.13;3.90;;;25.00;73.60;;;;;;5135044;28;20031;-78
2023/08/11 10:10:10;;;;;;;5.78;3.50;;;25.10;75.20;;;;;;5135162;28;20030;-80
2023/08/11 10:12:40;;;;;;;8.25;4.50;;;25.30;75.50;;;;;;5135219;28;20041;-80
2023/08/11 10:15:10;;;;;;;8.07;4.28;;;25.50;74.00;;;;;;5135034;28;20019;-78
2023/08/11 10:17:36;;;;;;;8.65;4.38;;;25.50;74.40;;;;;;5134928;28;20030;-77
2023/08/11 10:20:04;;;;;;;7.15;3.85;;;25.60;73.90;;;;;;5116855;28;20027;-79
2023/08/11 10:22:32;;;;;;;9.68;3.72;;;25.60;74.60;;;;;;5134896;28;20092;-77
2023/08/11 10:24:58;;;;;;;8.65;3.72;;;25.70;74.40;;;;;;5134816;28;20019;-77
2023/08/11 10:27:25;;;;;;;4.72;3.28;;;25.70;74.00;;;;;;5134684;28;20031;-79
2023/08/11 10:29:51;;;;;;;4.45;3.15;;;25.80;73.40;;;;;;5100050;28;20020;-79
2023/08/11 10:32:17;;;;;;;10.82;3.42;;;25.80;73.20;;;;;;5099853;28;20027;-78
2023/08/11 10:34:43;;;;;;;6.00;3.40;;;25.80;72.80;;;;;;5099792;28;20016;-78
2023/08/11 10:37:08;;;;;;;5.50;3.17;;;26.00;74.40;;;;;;5116519;28;20103;-78
2023/08/11 10:39:37;;;;;;;4.90;3.08;;;26.10;73.10;;;;;;5134517;28;20094;-77
2023/08/11 10:42:03;;;;;;;3.67;2.85;;;26.10;72.50;;;;;;5134509;28;20020;-78
2023/08/11 10:44:29;;;;;;;3.47;2.60;;;26.20;71.60;;;;;;5116644;28;20057;-78
2023/08/11 10:46:58;;;;;;;4.95;3.42;;;26.20;71.00;;;;;;5134463;28;20035;-78
2023/08/11 10:49:33;;;;;;;5.80;3.22;;;26.20;71.40;;;;;;5116220;28;20041;-78
2023/08/11 10:52:01;;;;;;;3.80;2.55;;;26.20;72.60;;;;;;5134353;28;20027;-78
2023/08/11 10:54:26;;;;;;;3.75;2.72;;;26.30;71.70;;;;;;5116307;28;20083;-77
2023/08/11 10:56:53;;;;;;;5.18;2.80;;;26.30;71.00;;;;;;5134311;28;20054;-77
2023/08/11 10:59:23;;;;;;;5.35;2.97;;;26.30;70.70;;;;;;5134200;28;20047;-77
2023/08/11 11:01:51;;;;;;;4.00;2.40;;;26.30;71.80;;;;;;5134235;28;20020;-77
2023/08/11 11:04:19;;;;;;;4.10;2.38;;;26.40;71.20;;;;;;5116097;28;20030;-77
2023/08/11 11:06:46;;;;;;;4.15;3.17;;;26.50;70.70;;;;;;5134181;28;20024;-77
2023/08/11 11:09:13;;;;;;;6.13;2.53;;;26.60;71.00;;;;;;5116448;28;20050;-76
2023/08/11 11:11:39;;;;;;;4.72;2.75;;;26.60;70.20;;;;;;5116364;28;20102;-77
2023/08/11 11:14:06;;;;;;;5.55;2.90;;;26.70;70.50;;;;;;5099111;28;20031;-78
2023/08/11 11:16:32;;;;;;;5.82;3.10;;;26.80;70.40;;;;;;5099307;28;20023;-77
2023/08/11 11:19:00;;;;;;;5.25;2.88;;;26.90;71.30;;;;;;5116238;28;20024;-77
2023/08/11 11:21:26;;;;;;;3.25;2.53;;;27.00;70.20;;;;;;5116044;28;20099;-77
2023/08/11 11:23:51;;;;;;;5.68;2.78;;;27.20;70.60;;;;;;5133974;28;20053;-77
2023/08/11 11:26:26;;;;;;;6.97;2.67;;;27.20;70.20;;;;;;5133843;28;20092;-78
2023/08/11 11:28:52;;;;;;;4.93;2.47;;;27.10;69.40;;;;;;5133937;28;20027;-77
2023/08/11 11:31:19;;;;;;;3.33;2.78;;;27.20;69.10;;;;;;5133873;28;20016;-77
2023/08/11 11:33:46;;;;;;;4.30;2.50;;;27.20;70.30;;;;;;5115782;28;20020;-77
2023/08/11 11:36:12;;;;;;;3.53;2.60;;;27.30;70.60;;;;;;5133855;28;20083;-77
2023/08/11 11:38:39;;;;;;;3.53;2.70;;;27.30;69.10;;;;;;5133813;28;20083;-77
2023/08/11 11:41:12;;;;;;;4.13;2.42;;;27.40;68.40;;;;;;5133810;28;20026;-77
2023/08/11 11:43:38;;;;;;;6.13;2.97;;;27.40;69.10;;;;;;5115815;28;20051;-77
2023/08/11 11:46:14;;;;;;;4.55;2.60;;;27.50;70.00;;;;;;5133651;28;20032;-77
2023/08/11 11:48:44;;;;;;;4.22;2.58;;;27.60;68.60;;;;;;5136975;28;20043;-77
2023/08/11 11:51:15;;;;;;;5.95;2.38;;;27.60;68.30;;;;;;5137666;28;20052;-77
2023/08/11 11:53:42;;;;;;;4.63;2.53;;;27.70;67.30;;;;;;5137855;28;20023;-77
2023/08/11 11:56:09;;;;;;;5.45;2.53;;;27.70;68.20;;;;;;5102840;28;20028;-77
2023/08/11 11:58:38;;;;;;;4.88;2.55;;;27.70;68.20;;;;;;5137822;28;20035;-76
2023/08/11 12:01:16;;;;;;;4.93;2.50;;;27.70;68.80;;;;;;5137636;28;20030;-76
2023/08/11 12:03:44;;;;;;;11.82;3.67;;;27.90;68.70;;;;;;5137634;28;20023;-76
2023/08/11 12:06:09;;;;;;;4.05;2.70;;;28.10;69.00;;;;;;5119395;28;20024;-76
2023/08/11 12:08:35;;;;;;;3.95;2.40;;;28.10;67.40;;;;;;5137615;28;20027;-76
2023/08/11 12:11:04;;;;;;;3.00;2.42;;;28.20;67.60;;;;;;5137481;28;20083;-77
2023/08/11 12:13:31;;;;;;;3.20;2.30;;;28.10;66.80;;;;;;5137420;28;20021;-76
2023/08/11 12:15:58;;;;;;;3.47;2.40;;;28.20;67.80;;;;;;5119277;28;20088;-76
2023/08/11 12:18:26;;;;;;;7.20;2.50;;;28.30;67.30;;;;;;5137323;28;20130;-77
2023/08/11 12:20:52;;;;;;;4.10;2.58;;;28.30;68.00;;;;;;5137237;28;20011;-76
2023/08/11 12:23:17;;;;;;;3.15;2.35;;;28.30;68.10;;;;;;5119195;28;20027;-76
2023/08/11 12:25:43;;;;;;;6.60;2.67;;;28.30;66.40;;;;;;5137098;28;20044;-76
2023/08/11 12:28:08;;;;;;;2.95;2.35;;;28.30;67.60;;;;;;5137112;28;20019;-77
2023/08/11 12:30:34;;;;;;;4.00;2.63;;;28.40;67.90;;;;;;5085456;28;20023;-76
2023/08/11 12:33:00;;;;;;;5.43;2.80;;;28.40;66.90;;;;;;5137171;28;20409;-78
2023/08/11 12:35:25;;;;;;;5.13;2.40;;;28.50;66.30;;;;;;5118986;28;20027;-77